Hauptseite
METAR-TAF:

METAR-TAF

Flughäfen :

Flughafen Burgos

Burgos, Spanien

Breite: 42-22N, Länge: 003-38W, Höhe: 894 m

Beobachtung

Neuester Wetterbericht von vor 32 Minuten, um 23:30 UTC
Wind 10 kt aus West/Südwest
Temperatur 2°C
Luftfeuchtigkeit 100%
Luftdruck 1010 hPa
Sichtweite 10 km oder mehr
(schwach) unbekannt

METAR: LEBG 222330Z AUTO 24010KT 9999 -UP SCT009/// BKN016/// BKN032/// 02/02 Q1010

Zeit: 01:02 (00:02 UTC)

Prognose

Neuester Wetterbericht von vor 7 Stunden und 2 Minuten, um 17:00 UTC
Gültige Prognose vom 22 um 18 UTC bis 23 um 03 UTC
Wind 10 kt aus West/Südwest
Sichtweite 10 km oder mehr
Aufgelockert bewölkt in der Höhe von 1000 ft
Durchbrochene Bewölkung in der Höhe von 1500 ft
Zeitweise
vom 22 um 18 UTC bis 23 um 03 UTC
Sichtweite: 2000 m
Geschlossene Wolkendecke in der Höhe von 600 ft
Schnee, Regen

TAF: LEBG 221700Z 2218/2303 25010KT 9999 SCT010 BKN015 TEMPO 2218/2303 2000 SNRA OVC006

Wetterbeobachtungen und Prognosen von mehr als 4000 Flughäfen (METAR und TAF Bericht).

Die verfügbaren Stationen werden durch gelbe und rote Markierungen auf der Karte dargestellt.

Führen Sie die Maus auf sie, um den Namen der Station zu sehen.

Darauf klicken, um die Beobachtung von Wetterbeobachtungen und Prognosen zu sehen.

Um die Karte zu ändern : klicken Sie auf den grünen Tasten mit einem schwarzen Kreuz Zum Vergrößern, auf den grünen Button mit einem Gedankenstrich zu verkleinern, oder auf die grünen Pfeile für benachbarte Karten.


METAR-TAF: